Hlavní strana
METAR-TAF:

METAR-TAF

Letiště :

Kchun-ming, Čína

Mezinárodní letiště Kchun-ming Čchang-šuej

zeměpisná šířka: 25-01N, zeměpisná délka: 102-41E, výška: 1892 m

Aktuální stav počasí

Zpráva byla vytvořena před 21 minutami, v 23:00 UTC
Bezvětří
Teplota 5°C
Vlhkost vzduchu 100%
Tlak 1021 hPa
Viditelnost 10 km a více
Oblačno až skoro zataženo ve výšce 3600 ft

METAR: ZPPP 182300Z 00000MPS 9999 BKN036 05/05 Q1021 NOSIG

Čas: 07:21 (23:21 UTC)

Předpověď počasí

Zpráva byla vytvořena před 10 hodinami a 13 minutami, v 13:08 UTC
Předpověď platná od 18 v 18 UTC do 19 v 18 UTC
Jihozápadní vítr 10 kt
Viditelnost 10 km a více
Polojasno ve výšce 2600 ft

TAF: ZPPP 181308Z 1818/1918 22005MPS 9999 SCT026 TX17/1908Z TN03/1823Z

Stav a předpovědi počasí z více než 4 000 letišť (zprávy METAR a TAF).

Červené a žluté tečky na mapě představují dostupné meteorologické stanice.

Když kurzor umístíte na tečku, zobrazí se název stanice.

Pak kliknutím zobrazíte stav a předpověď počasí.

Chcete-li změnit mapu, kliknutím na zelené tlačítko se znaménkem +mapu přiblížíte, kliknutím na zelené tlačítko se znaménkem – mapu oddálíte a kliknutím na zelené šipky přejdete na sousední mapy.


METAR-TAF: